Time;durP1;ratioP1;P1;durP2;ratioP2;P2;SDS_P1;SDS_P2;PMS_P1;PMS_P2;Temp;Humidity;BMP_temperature;BMP_pressure;BME280_temperature;BME280_humidity;BME280_pressure;Samples;Min_cycle;Max_cycle;Signal;HPM_P1;HPM_P2
2021/04/27 00:01:21;;;;;;;5.47;3.60;;;;;;;6.56;42.67;101444.94;5020519;28;20460;-71
2021/04/27 00:03:47;;;;;;;4.33;3.93;;;;;;;6.98;41.76;101436.09;5003207;28;20210;-71
2021/04/27 00:06:12;;;;;;;4.83;4.10;;;;;;;6.67;42.80;101435.00;5017621;28;20233;-70
2021/04/27 00:08:40;;;;;;;4.13;3.73;;;;;;;7.02;42.12;101437.06;5021490;28;20202;-70
2021/04/27 00:11:06;;;;;;;3.93;3.37;;;;;;;6.33;42.46;101438.91;5021430;28;20179;-70
2021/04/27 00:13:31;;;;;;;3.90;3.50;;;;;;;6.39;42.63;101438.25;5021920;28;20602;-70
2021/04/27 00:15:56;;;;;;;4.00;3.60;;;;;;;6.47;42.47;101425.56;5024000;28;20262;-71
2021/04/27 00:18:22;;;;;;;5.40;3.50;;;;;;;6.42;42.82;101430.59;5022303;28;20186;-70
2021/04/27 00:20:47;;;;;;;6.17;3.80;;;;;;;6.54;42.33;101427.59;5021170;28;20384;-70
2021/04/27 00:23:12;;;;;;;4.40;3.80;;;;;;;6.35;43.06;101431.19;5020522;28;20198;-70
2021/04/27 00:25:38;;;;;;;6.57;3.93;;;;;;;6.72;42.36;101422.19;5020866;28;20174;-71
2021/04/27 00:28:03;;;;;;;5.13;4.17;;;;;;;6.64;42.84;101416.72;5021140;28;20199;-71
2021/04/27 00:30:29;;;;;;;4.97;3.40;;;;;;;6.55;43.04;101425.03;5020716;28;20167;-70
2021/04/27 00:32:55;;;;;;;4.30;3.90;;;;;;;6.09;44.52;101417.22;5020855;28;20537;-71
2021/04/27 00:35:20;;;;;;;4.33;3.57;;;;;;;5.64;44.93;101424.09;5021098;28;20171;-72
2021/04/27 00:37:46;;;;;;;4.33;3.93;;;;;;;6.03;44.05;101421.34;5020642;28;20213;-72
2021/04/27 00:40:13;;;;;;;3.70;3.40;;;;;;;5.98;45.44;101420.31;5020521;28;20179;-71
2021/04/27 00:42:41;;;;;;;4.40;3.67;;;;;;;6.78;42.60;101421.50;5021136;28;20166;-71
2021/04/27 00:45:09;;;;;;;3.57;3.27;;;;;;;6.32;43.79;101418.09;5020519;28;20780;-73
2021/04/27 00:47:35;;;;;;;5.87;3.80;;;;;;;6.29;43.54;101416.31;5020337;28;20512;-72
2021/04/27 00:50:03;;;;;;;3.60;3.30;;;;;;;6.33;44.39;101414.69;5020035;28;20464;-72
2021/04/27 00:52:28;;;;;;;3.90;3.60;;;;;;;6.75;42.84;101406.75;5019115;28;20513;-70
2021/04/27 00:54:53;;;;;;;4.77;4.30;;;;;;;6.38;43.69;101416.63;5003505;28;20521;-72
2021/04/27 00:57:20;;;;;;;4.40;3.70;;;;;;;6.04;45.28;101420.53;5020577;28;20189;-70
2021/04/27 00:59:46;;;;;;;3.97;3.40;;;;;;;6.24;44.19;101423.00;5020264;28;20224;-70
2021/04/27 01:02:11;;;;;;;3.90;3.60;;;;;;;6.30;43.92;101420.63;5020093;28;20508;-71
2021/04/27 01:04:36;;;;;;;4.80;3.77;;;;;;;6.76;43.15;101412.81;5020650;28;20171;-71
2021/04/27 01:07:02;;;;;;;4.23;3.83;;;;;;;6.63;44.46;101408.88;5020155;28;20189;-71
2021/04/27 01:09:32;;;;;;;5.30;3.90;;;;;;;6.71;43.16;101410.94;5019960;28;20238;-72
2021/04/27 01:12:02;;;;;;;3.93;3.53;;;;;;;5.86;45.03;101419.78;5003458;28;20182;-71
2021/04/27 01:14:34;;;;;;;3.83;3.53;;;;;;;6.50;44.21;101410.16;5020171;28;20495;-71
2021/04/27 01:17:03;;;;;;;6.83;4.13;;;;;;;6.70;42.87;101409.19;5019691;28;20425;-71
2021/04/27 01:19:38;;;;;;;4.47;4.07;;;;;;;5.71;45.40;101414.84;5019420;28;20823;-71
2021/04/27 01:22:09;;;;;;;4.40;4.00;;;;;;;6.44;44.12;101409.91;5003021;28;20542;-70
2021/04/27 01:24:39;;;;;;;5.70;4.17;;;;;;;6.35;43.98;101407.88;5009179;28;20747;-70
2021/04/27 01:27:05;;;;;;;9.47;4.20;;;;;;;6.28;44.51;101403.28;4999443;28;20788;-71
2021/04/27 01:29:33;;;;;;;4.17;3.73;;;;;;;6.43;44.05;101408.16;5000340;28;20462;-71
2021/04/27 01:32:02;;;;;;;6.13;3.80;;;;;;;6.30;45.98;101396.47;5000243;28;20496;-71
2021/04/27 01:34:32;;;;;;;7.73;4.17;;;;;;;6.04;45.03;101407.56;5000515;28;20407;-72
2021/04/27 01:36:58;;;;;;;3.90;3.50;;;;;;;6.26;45.21;101403.22;5000357;28;20422;-70
2021/04/27 01:39:26;;;;;;;4.00;3.60;;;;;;;6.18;44.84;101395.19;4983402;28;20423;-71
2021/04/27 01:41:53;;;;;;;3.90;3.60;;;;;;;6.02;45.87;101406.66;5000765;28;20202;-71
2021/04/27 01:44:19;;;;;;;4.67;3.93;;;;;;;6.32;45.08;101398.28;5000372;28;20473;-71
2021/04/27 01:46:45;;;;;;;4.13;3.70;;;;;;;6.23;45.03;101397.94;4983289;28;20422;-71
2021/04/27 01:49:12;;;;;;;4.07;3.67;;;;;;;6.36;45.17;101400.16;4999725;28;20286;-71
2021/04/27 01:51:37;;;;;;;6.87;4.50;;;;;;;6.41;44.94;101400.31;4999371;28;20172;-70
2021/04/27 01:54:04;;;;;;;4.23;3.83;;;;;;;6.75;44.15;101388.59;4999454;28;20470;-71
2021/04/27 01:56:29;;;;;;;5.70;4.20;;;;;;;6.76;43.91;101386.91;4999727;28;20560;-70
2021/04/27 01:58:54;;;;;;;4.73;4.33;;;;;;;6.33;45.06;101393.97;4999886;28;20419;-71
2021/04/27 02:01:20;;;;;;;4.30;3.90;;;;;;;6.34;45.13;101393.16;4999621;28;20222;-70
2021/04/27 02:03:47;;;;;;;3.73;3.43;;;;;;;6.48;45.16;101391.06;4999929;28;20241;-70
2021/04/27 02:06:12;;;;;;;4.70;4.20;;;;;;;6.34;45.41;101393.16;5015014;28;20540;-69
2021/04/27 02:08:39;;;;;;;4.27;3.87;;;;;;;6.01;46.46;101391.94;5018910;28;20568;-70
2021/04/27 02:11:05;;;;;;;4.73;4.30;;;;;;;6.30;45.36;101386.97;5019498;28;20217;-70
2021/04/27 02:13:31;;;;;;;12.97;4.13;;;;;;;5.68;47.40;101394.03;5019536;28;20796;-70
2021/04/27 02:15:56;;;;;;;5.33;4.27;;;;;;;5.38;48.96;101400.59;5022179;28;20464;-69
2021/04/27 02:18:28;;;;;;;9.77;3.87;;;;;;;5.51;47.76;101390.78;5019698;28;20644;-70
2021/04/27 02:20:54;;;;;;;6.07;4.40;;;;;;;5.86;47.18;101393.91;5018018;28;20179;-69
2021/04/27 02:23:19;;;;;;;6.50;4.00;;;;;;;6.00;47.18;101391.88;5018745;28;20886;-70
2021/04/27 02:25:46;;;;;;;4.23;3.83;;;;;;;5.83;46.89;101388.59;5019813;28;20434;-72
2021/04/27 02:28:11;;;;;;;4.47;4.03;;;;;;;6.16;45.90;101385.59;5001982;28;20253;-70
2021/04/27 02:30:37;;;;;;;4.67;4.23;;;;;;;5.64;46.77;101390.47;5018254;28;20421;-70
2021/04/27 02:33:03;;;;;;;4.50;4.10;;;;;;;5.77;46.85;101378.00;5002019;28;20200;-70
2021/04/27 02:35:30;;;;;;;4.50;3.90;;;;;;;6.18;45.69;101381.34;5018722;28;20170;-71
2021/04/27 02:37:55;;;;;;;6.27;4.13;;;;;;;6.04;46.56;101376.50;5018916;28;20213;-70
2021/04/27 02:40:26;;;;;;;5.03;4.53;;;;;;;5.82;46.77;101377.38;5018953;28;20446;-69
2021/04/27 02:42:53;;;;;;;3.93;3.63;;;;;;;5.52;47.23;101377.91;5018503;28;20258;-71
2021/04/27 02:45:19;;;;;;;3.83;3.53;;;;;;;5.39;48.10;101376.50;5018524;28;20788;-71
2021/04/27 02:47:44;;;;;;;5.37;4.47;;;;;;;6.03;45.85;101368.69;5000877;28;20468;-71
2021/04/27 02:50:12;;;;;;;5.87;4.00;;;;;;;5.76;48.25;101366.75;5018259;28;20175;-71
2021/04/27 02:52:37;;;;;;;6.43;4.10;;;;;;;6.00;46.95;101366.00;5018510;28;20265;-69
2021/04/27 02:55:04;;;;;;;5.03;4.27;;;;;;;5.96;45.91;101364.09;5019086;28;20760;-71
2021/04/27 02:57:29;;;;;;;5.00;3.80;;;;;;;5.82;47.40;101366.13;5017715;28;20528;-70
2021/04/27 02:59:54;;;;;;;6.87;4.53;;;;;;;6.21;45.92;101368.50;5018366;28;20762;-69
2021/04/27 03:02:19;;;;;;;4.23;3.80;;;;;;;5.58;46.88;101361.75;5018716;28;20175;-68
2021/04/27 03:04:45;;;;;;;3.90;3.60;;;;;;;6.12;46.33;101355.25;5018441;28;20233;-70
2021/04/27 03:07:10;;;;;;;4.77;3.97;;;;;;;6.02;46.61;101357.47;5018656;28;20193;-70
2021/04/27 03:09:35;;;;;;;5.80;4.10;;;;;;;5.60;47.62;101356.63;5018621;28;20277;-69
2021/04/27 03:12:01;;;;;;;4.00;3.60;;;;;;;5.64;47.80;101356.84;5018238;28;20476;-69
2021/04/27 03:14:27;;;;;;;4.70;3.93;;;;;;;5.95;47.38;101347.66;5018283;28;20202;-69
2021/04/27 03:16:52;;;;;;;4.40;4.00;;;;;;;5.93;46.52;101349.31;5019001;28;20508;-70
2021/04/27 03:19:17;;;;;;;4.40;4.00;;;;;;;5.92;47.95;101346.69;5018324;28;20175;-71
2021/04/27 03:21:43;;;;;;;8.23;4.93;;;;;;;5.95;46.93;101347.66;5018370;28;20205;-69
2021/04/27 03:24:08;;;;;;;6.00;4.07;;;;;;;5.82;47.06;101346.31;5018247;28;20226;-70
2021/04/27 03:26:34;;;;;;;5.40;4.90;;;;;;;5.94;46.13;101342.44;5018007;28;20257;-69
2021/04/27 03:28:59;;;;;;;5.13;4.30;;;;;;;5.42;47.60;101346.44;5018268;28;20214;-69
2021/04/27 03:31:25;;;;;;;4.10;3.70;;;;;;;5.58;47.64;101341.06;5018183;28;20171;-69
2021/04/27 03:33:50;;;;;;;5.57;3.97;;;;;;;5.86;46.19;101342.16;5017814;28;20213;-69
2021/04/27 03:36:15;;;;;;;4.63;4.10;;;;;;;5.66;48.60;101341.38;5018713;28;20210;-69
2021/04/27 03:38:41;;;;;;;5.43;3.90;;;;;;;5.74;47.12;101348.59;5018028;28;20171;-70
2021/04/27 03:41:06;;;;;;;4.70;3.83;;;;;;;5.19;48.27;101343.78;5017851;28;20171;-71
2021/04/27 03:43:32;;;;;;;7.60;4.20;;;;;;;5.38;47.66;101348.88;5018710;28;20167;-69
2021/04/27 03:45:57;;;;;;;5.00;3.77;;;;;;;5.42;47.64;101338.69;5017855;28;20175;-68
2021/04/27 03:48:23;;;;;;;4.70;3.97;;;;;;;5.90;46.92;101336.28;5017912;28;20257;-69
2021/04/27 03:50:49;;;;;;;6.03;3.80;;;;;;;5.30;47.93;101345.09;5018398;28;20171;-71
2021/04/27 03:53:14;;;;;;;7.60;6.07;;;;;;;5.79;47.18;101341.03;4999413;28;20424;-68
2021/04/27 03:55:40;;;;;;;8.27;5.43;;;;;;;5.37;47.64;101341.97;4988197;28;20175;-69
2021/04/27 03:58:06;;;;;;;5.53;4.30;;;;;;;4.51;50.49;101348.69;5018911;28;20512;-70
2021/04/27 04:00:32;;;;;;;5.57;4.30;;;;;;;4.36;51.88;101356.63;5023680;28;20163;-69
2021/04/27 04:02:57;;;;;;;5.97;4.33;;;;;;;4.78;51.12;101353.28;5031778;28;20451;-68
2021/04/27 04:05:23;;;;;;;4.90;4.20;;;;;;;4.71;50.89;101350.44;5022408;28;20218;-71
2021/04/27 04:07:48;;;;;;;7.80;4.87;;;;;;;4.69;51.73;101352.03;5038109;28;20193;-70
2021/04/27 04:10:14;;;;;;;7.10;5.00;;;;;;;4.12;52.91;101348.66;5041430;28;20253;-68
2021/04/27 04:12:40;;;;;;;5.23;4.07;;;;;;;4.55;52.26;101342.84;5031240;28;20175;-69
2021/04/27 04:15:08;;;;;;;5.37;4.70;;;;;;;4.66;51.51;101351.03;5024907;28;20409;-70
2021/04/27 04:17:34;;;;;;;5.00;4.37;;;;;;;4.97;50.86;101345.50;5021008;28;20425;-69
2021/04/27 04:19:59;;;;;;;7.10;4.57;;;;;;;5.29;49.39;101348.53;5021228;28;20418;-69
2021/04/27 04:22:24;;;;;;;4.43;4.03;;;;;;;4.79;51.40;101349.84;5020762;28;20216;-69
2021/04/27 04:24:50;;;;;;;14.40;4.80;;;;;;;5.63;49.18;101339.53;5020587;28;20261;-69
2021/04/27 04:27:16;;;;;;;7.53;4.70;;;;;;;5.49;48.69;101344.16;5021690;28;20435;-69
2021/04/27 04:29:41;;;;;;;8.27;4.77;;;;;;;5.72;47.73;101342.50;5018544;28;20217;-71
2021/04/27 04:32:09;;;;;;;8.67;3.80;;;;;;;6.35;46.57;101340.56;5016576;28;20182;-69
2021/04/27 04:34:35;;;;;;;5.37;4.10;;;;;;;7.68;42.57;101332.91;5003828;28;20244;-69
2021/04/27 04:37:00;;;;;;;6.20;4.27;;;;;;;8.65;41.80;101332.28;5017975;28;20528;-69
2021/04/27 04:39:25;;;;;;;4.47;4.07;;;;;;;8.02;42.90;101331.31;5020903;28;20175;-69
2021/04/27 04:41:50;;;;;;;6.20;4.10;;;;;;;7.92;43.06;101331.91;5021001;28;20199;-69
2021/04/27 04:44:16;;;;;;;4.60;4.17;;;;;;;7.89;42.47;101332.69;5020797;28;20577;-69
2021/04/27 04:46:42;;;;;;;7.43;4.30;;;;;;;6.09;46.70;101343.06;5013755;28;20183;-69
2021/04/27 04:49:07;;;;;;;7.30;3.90;;;;;;;7.69;43.43;101339.00;5003054;28;20204;-69
2021/04/27 04:51:33;;;;;;;3.67;3.37;;;;;;;8.05;42.60;101336.63;5005598;28;20473;-69
2021/04/27 04:54:00;;;;;;;4.60;3.83;;;;;;;7.70;42.53;101336.44;5020734;28;20232;-70
2021/04/27 04:56:25;;;;;;;4.70;4.10;;;;;;;7.62;42.31;101337.03;5020432;28;20167;-69
2021/04/27 04:58:51;;;;;;;4.60;4.20;;;;;;;7.46;43.07;101343.47;5020360;28;20453;-68
2021/04/27 05:01:16;;;;;;;5.23;4.07;;;;;;;7.28;43.04;101344.63;5020232;28;20525;-70
2021/04/27 05:03:42;;;;;;;6.50;3.83;;;;;;;6.72;44.56;101340.16;5016395;28;20176;-69
2021/04/27 05:06:11;;;;;;;4.47;4.07;;;;;;;6.10;45.82;101349.09;4983736;28;20597;-67
2021/04/27 05:08:43;;;;;;;6.20;4.30;;;;;;;6.93;44.66;101344.31;5000421;28;20199;-70
2021/04/27 05:11:08;;;;;;;7.50;4.30;;;;;;;6.43;46.49;101338.22;4999459;28;20411;-69
2021/04/27 05:13:34;;;;;;;7.60;4.80;;;;;;;6.63;44.86;101346.72;5000589;28;20473;-68
2021/04/27 05:16:01;;;;;;;8.67;4.23;;;;;;;5.99;48.55;101354.75;5000724;28;20172;-69
2021/04/27 05:18:26;;;;;;;6.70;3.90;;;;;;;5.60;48.52;101348.88;4999790;28;20543;-67
2021/04/27 05:20:53;;;;;;;4.90;4.40;;;;;;;5.31;49.18;101359.81;5000255;28;20454;-68
2021/04/27 05:23:19;;;;;;;5.43;4.60;;;;;;;5.85;47.49;101353.31;5000658;28;20263;-70
2021/04/27 05:25:44;;;;;;;11.00;4.20;;;;;;;5.85;48.05;101356.78;5000371;28;20473;-68
2021/04/27 05:28:09;;;;;;;4.60;4.20;;;;;;;5.95;47.46;101354.56;5000065;28;20466;-68
2021/04/27 05:30:35;;;;;;;5.23;4.57;;;;;;;6.93;46.42;101352.09;5000275;28;20194;-67
2021/04/27 05:33:00;;;;;;;7.57;4.47;;;;;;;8.46;40.79;101345.59;5000172;28;20175;-69
2021/04/27 05:35:25;;;;;;;5.93;4.47;;;;;;;11.40;34.93;101335.53;5001059;28;20429;-68
2021/04/27 05:37:50;;;;;;;4.57;3.83;;;;;;;12.22;33.76;101339.34;5000033;28;20191;-67
2021/04/27 05:40:17;;;;;;;5.90;4.50;;;;;;;13.01;32.01;101340.19;5005401;28;20170;-68
2021/04/27 05:42:43;;;;;;;7.67;4.40;;;;;;;13.69;30.57;101335.50;5029957;28;20181;-68
2021/04/27 05:45:09;;;;;;;5.57;3.97;;;;;;;13.13;30.65;101340.28;5019069;28;20706;-69
2021/04/27 05:47:34;;;;;;;5.80;4.20;;;;;;;11.33;33.88;101345.88;5018838;28;20175;-68
2021/04/27 05:49:59;;;;;;;5.80;4.20;;;;;;;13.99;29.69;101339.19;5019913;28;20424;-70
2021/04/27 05:52:25;;;;;;;6.83;4.40;;;;;;;12.56;31.91;101341.50;5018955;28;20182;-67
2021/04/27 05:54:50;;;;;;;5.33;4.83;;;;;;;12.99;31.23;101347.16;5023782;28;20194;-67
2021/04/27 05:57:16;;;;;;;8.90;4.83;;;;;;;14.82;28.74;101336.00;5022932;28;20251;-67
2021/04/27 05:59:41;;;;;;;6.50;4.50;;;;;;;14.21;29.30;101348.03;5022960;28;20186;-69
2021/04/27 06:02:07;;;;;;;5.87;4.73;;;;;;;14.32;29.02;101332.31;5027108;28;20583;-67
2021/04/27 06:04:33;;;;;;;5.57;4.10;;;;;;;15.92;27.64;101335.94;5028990;28;20449;-68
2021/04/27 06:06:58;;;;;;;5.33;4.37;;;;;;;15.97;26.81;101339.44;5018833;28;20425;-69
2021/04/27 06:09:23;;;;;;;5.33;4.70;;;;;;;16.02;26.42;101342.94;5018045;28;20218;-69
2021/04/27 06:11:49;;;;;;;6.80;4.33;;;;;;;16.54;25.88;101340.97;5020547;28;20245;-70
2021/04/27 06:14:14;;;;;;;8.00;4.10;;;;;;;15.41;27.28;101336.00;5019191;28;20447;-68
2021/04/27 06:16:39;;;;;;;4.90;4.30;;;;;;;16.48;25.88;101340.09;5018768;28;20186;-67
2021/04/27 06:19:05;;;;;;;6.27;4.50;;;;;;;17.22;24.75;101333.47;5018852;28;20187;-68
2021/04/27 06:21:30;;;;;;;6.43;4.80;;;;;;;17.16;24.89;101336.19;5017685;28;20182;-71
2021/04/27 06:23:56;;;;;;;4.40;4.00;;;;;;;16.89;25.10;101337.25;5015898;28;20609;-69
2021/04/27 06:26:22;;;;;;;6.00;4.70;;;;;;;16.91;24.82;101330.22;5018819;28;20191;-69
2021/04/27 06:28:47;;;;;;;6.30;4.53;;;;;;;16.82;25.17;101345.16;5035513;28;20236;-71
2021/04/27 06:31:13;;;;;;;4.40;4.00;;;;;;;16.79;24.94;101345.19;5038028;28;20174;-70
2021/04/27 06:33:38;;;;;;;4.50;4.10;;;;;;;16.77;24.42;101346.09;5017753;28;20449;-70
2021/04/27 06:36:04;;;;;;;5.23;4.73;;;;;;;17.34;24.14;101345.69;5018446;28;20179;-71
2021/04/27 06:38:30;;;;;;;4.97;4.47;;;;;;;17.95;23.15;101344.22;5018136;28;20269;-71
2021/04/27 06:40:55;;;;;;;4.13;3.83;;;;;;;14.58;27.15;101357.78;5018515;28;20788;-73
2021/04/27 06:43:22;;;;;;;6.13;4.30;;;;;;;16.37;25.23;101341.91;5014756;28;20622;-70
2021/04/27 06:45:47;;;;;;;4.63;4.20;;;;;;;16.70;24.50;101344.34;5016206;28;20576;-70
2021/04/27 06:48:13;;;;;;;4.47;4.07;;;;;;;17.22;23.94;101332.63;5018436;28;20468;-71
2021/04/27 06:50:39;;;;;;;4.30;3.90;;;;;;;17.29;23.42;101332.56;5017959;28;20182;-71
2021/04/27 06:53:05;;;;;;;4.17;3.77;;;;;;;16.52;24.46;101334.81;5017144;28;20191;-69
2021/04/27 06:55:31;;;;;;;6.20;3.50;;;;;;;17.64;23.62;101327.81;5014139;28;20837;-70
2021/04/27 06:58:01;;;;;;;4.43;3.90;;;;;;;17.20;24.04;101331.75;5018011;28;20175;-71
2021/04/27 07:00:26;;;;;;;6.30;3.73;;;;;;;15.55;25.98;101346.53;5017851;28;20429;-69
2021/04/27 07:02:51;;;;;;;4.40;4.00;;;;;;;16.84;24.41;101330.25;5022508;28;20456;-70
2021/04/27 07:05:17;;;;;;;5.13;4.20;;;;;;;17.80;23.91;101334.69;5017333;28;20213;-71
2021/04/27 07:07:42;;;;;;;4.17;3.83;;;;;;;17.83;22.80;101324.13;5017910;28;20179;-70
2021/04/27 07:10:08;;;;;;;4.27;3.83;;;;;;;18.76;21.96;101335.28;5016796;28;20179;-70
2021/04/27 07:12:33;;;;;;;4.27;3.87;;;;;;;18.58;22.15;101323.19;4999134;28;20551;-71
2021/04/27 07:14:58;;;;;;;6.03;4.03;;;;;;;19.05;21.92;101320.75;4998063;28;20180;-71
2021/04/27 07:17:24;;;;;;;3.93;3.50;;;;;;;17.99;22.79;101329.22;4998600;28;20259;-71
2021/04/27 07:19:49;;;;;;;4.57;4.17;;;;;;;17.99;22.34;101329.22;4998397;28;20176;-71
2021/04/27 07:22:15;;;;;;;4.20;3.80;;;;;;;19.54;21.13;101322.56;5003798;28;20202;-70
2021/04/27 07:24:40;;;;;;;4.30;3.50;;;;;;;17.07;23.32;101310.78;4998054;28;20240;-70
2021/04/27 07:27:06;;;;;;;6.33;3.87;;;;;;;17.27;22.80;101315.00;5013944;28;20201;-69
2021/04/27 07:29:31;;;;;;;3.80;3.50;;;;;;;17.90;22.83;101324.03;5000142;28;20214;-70
2021/04/27 07:31:56;;;;;;;4.47;3.90;;;;;;;18.97;21.62;101310.31;5017728;28;20184;-71
2021/04/27 07:34:22;;;;;;;4.23;3.60;;;;;;;17.36;22.61;101324.59;5008948;28;20494;-70
2021/04/27 07:36:48;;;;;;;4.10;3.60;;;;;;;17.44;23.61;101323.63;5017501;28;20202;-70
2021/04/27 07:39:14;;;;;;;4.87;3.63;;;;;;;18.32;22.74;101316.50;5021387;28;20417;-69
2021/04/27 07:41:40;;;;;;;4.00;3.60;;;;;;;17.66;23.31;101315.50;5020812;28;20713;-70
2021/04/27 07:44:05;;;;;;;4.27;3.87;;;;;;;18.89;21.33;101318.38;5016229;28;20512;-70
2021/04/27 07:46:31;;;;;;;4.20;3.67;;;;;;;19.16;21.13;101303.81;5012974;28;20313;-69
2021/04/27 07:48:56;;;;;;;4.17;3.77;;;;;;;19.43;20.80;101303.34;5012938;28;20300;-69
2021/04/27 07:51:21;;;;;;;3.73;3.37;;;;;;;18.52;22.06;101309.19;5016314;28;20221;-69
2021/04/27 07:53:47;;;;;;;3.70;3.40;;;;;;;16.82;23.84;101313.56;5013654;28;20184;-70
2021/04/27 07:56:12;;;;;;;4.97;3.57;;;;;;;18.68;21.80;101299.25;5014188;28;20603;-69
2021/04/27 07:58:38;;;;;;;6.20;3.57;;;;;;;15.08;27.05;101319.38;5018554;28;20183;-71
2021/04/27 08:01:03;;;;;;;4.23;3.83;;;;;;;18.44;22.41;101299.63;5020585;28;20178;-70
2021/04/27 08:03:29;;;;;;;5.27;4.10;;;;;;;20.31;20.69;101305.16;5020789;28;20170;-71
2021/04/27 08:05:54;;;;;;;5.67;3.63;;;;;;;16.29;25.16;101307.75;5020865;28;20175;-69
2021/04/27 08:08:20;;;;;;;6.57;3.87;;;;;;;16.98;24.16;101297.66;5020297;28;20220;-70
2021/04/27 08:10:46;;;;;;;6.40;3.83;;;;;;;19.51;20.99;101291.75;5021100;28;20268;-71
2021/04/27 08:13:11;;;;;;;6.20;3.70;;;;;;;19.64;20.54;101281.78;5021669;28;20213;-71
2021/04/27 08:15:37;;;;;;;6.00;4.23;;;;;;;20.51;19.62;101290.59;5020858;28;20414;-70
2021/04/27 08:18:03;;;;;;;3.80;3.50;;;;;;;19.71;20.26;101295.78;5020732;28;20533;-69
2021/04/27 08:20:30;;;;;;;3.70;3.40;;;;;;;18.33;21.46;101297.13;5020870;28;20466;-70
2021/04/27 08:22:56;;;;;;;3.60;3.30;;;;;;;17.26;22.52;101294.81;5019712;28;20854;-71
2021/04/27 08:25:22;;;;;;;6.03;3.23;;;;;;;18.17;22.16;101297.34;5015092;28;20481;-72
2021/04/27 08:27:48;;;;;;;4.20;3.80;;;;;;;16.93;23.87;101299.50;5020828;28;20417;-70
2021/04/27 08:30:15;;;;;;;3.77;3.40;;;;;;;17.34;22.88;101298.25;5020535;28;20286;-71
2021/04/27 08:32:40;;;;;;;8.47;3.70;;;;;;;13.77;28.21;101305.00;5019716;28;20266;-71
2021/04/27 08:35:06;;;;;;;4.70;3.17;;;;;;;14.10;27.73;101306.03;5014326;28;20448;-70
2021/04/27 08:37:31;;;;;;;3.70;3.40;;;;;;;12.54;30.17;101312.72;5016636;28;20179;-69
2021/04/27 08:39:57;;;;;;;4.03;3.40;;;;;;;15.99;24.63;101292.97;5014271;28;20261;-70
2021/04/27 08:42:24;;;;;;;4.83;3.20;;;;;;;15.21;26.93;101300.13;5020528;28;20186;-69
2021/04/27 08:44:51;;;;;;;3.50;3.20;;;;;;;15.72;25.64;101296.53;5020466;28;20183;-69
2021/04/27 08:47:16;;;;;;;4.10;2.97;;;;;;;13.25;27.56;101302.88;5013957;28;20923;-70
2021/04/27 08:49:42;;;;;;;4.10;3.47;;;;;;;14.34;26.75;101298.22;5015223;28;20615;-68
2021/04/27 08:52:07;;;;;;;3.60;3.30;;;;;;;15.84;24.76;101299.16;5016580;28;20269;-69
2021/04/27 08:54:35;;;;;;;3.70;3.40;;;;;;;15.05;25.75;101293.13;5014281;28;20186;-68
2021/04/27 08:57:01;;;;;;;4.27;3.23;;;;;;;16.82;23.49;101289.88;5018889;28;20218;-68
2021/04/27 08:59:26;;;;;;;5.10;3.30;;;;;;;14.84;25.49;101297.47;5019456;28;20422;-70
2021/04/27 09:01:52;;;;;;;3.50;3.20;;;;;;;15.19;24.51;101295.75;5016673;28;20511;-71
2021/04/27 09:04:43;;;;;;;5.40;3.53;;;;;;;17.57;23.20;101276.06;5012665;28;20509;-70
2021/04/27 09:07:12;;;;;;;3.60;3.30;;;;;;;16.25;23.27;101291.97;5018316;28;20210;-71
2021/04/27 09:09:41;;;;;;;4.00;3.60;;;;;;;13.81;25.72;101298.00;5019771;28;20469;-70
2021/04/27 09:12:07;;;;;;;3.70;3.40;;;;;;;16.72;23.28;101276.78;5015619;28;20451;-70
2021/04/27 09:14:39;;;;;;;7.53;3.50;;;;;;;14.93;24.90;101280.88;5007210;28;20473;-70
2021/04/27 09:17:06;;;;;;;3.37;3.07;;;;;;;14.37;25.49;101283.38;5019456;28;20437;-69
2021/04/27 09:19:41;;;;;;;5.20;3.30;;;;;;;13.03;27.47;101291.34;5014961;28;20441;-69
2021/04/27 09:22:21;;;;;;;6.23;3.70;;;;;;;17.64;21.61;101272.47;5019818;28;20497;-70
2021/04/27 09:24:49;;;;;;;5.80;3.20;;;;;;;17.30;21.00;101265.78;5019761;28;20920;-69
2021/04/27 09:27:26;;;;;;;4.00;3.60;;;;;;;17.61;21.21;101251.41;5018673;28;20539;-69
2021/04/27 09:29:52;;;;;;;3.37;3.07;;;;;;;14.93;24.69;101262.50;5015369;28;20456;-71
2021/04/27 09:32:34;;;;;;;4.93;3.37;;;;;;;17.57;20.89;101258.47;5019478;28;20684;-70
2021/04/27 09:35:30;;;;;;;3.70;3.03;;;;;;;16.63;22.03;101249.63;5019679;28;20171;-70
2021/04/27 09:38:05;;;;;;;4.57;3.20;;;;;;;15.86;23.38;101267.59;5018901;28;20517;-70
2021/04/27 09:40:31;;;;;;;4.10;3.10;;;;;;;17.54;21.54;101249.75;5019428;28;20422;-70
2021/04/27 09:43:06;;;;;;;5.83;3.27;;;;;;;15.12;23.09;101263.38;5018548;28;20434;-68
2021/04/27 09:45:39;;;;;;;3.37;3.03;;;;;;;14.41;24.61;101252.78;5002652;28;20170;-69
2021/04/27 09:48:05;;;;;;;3.60;3.30;;;;;;;13.27;26.09;101251.41;5016831;28;20531;-69
2021/04/27 09:50:30;;;;;;;4.17;3.60;;;;;;;14.53;24.08;101251.94;5001085;28;20438;-69
2021/04/27 09:52:56;;;;;;;3.50;3.20;;;;;;;15.51;23.43;101247.56;5019493;28;20422;-69
2021/04/27 09:55:21;;;;;;;3.90;3.50;;;;;;;16.98;21.45;101226.56;5018958;28;20182;-70
2021/04/27 09:57:50;;;;;;;3.50;3.07;;;;;;;16.37;22.00;101235.78;5017694;28;20171;-70
2021/04/27 10:00:38;;;;;;;3.57;3.27;;;;;;;14.96;22.97;101239.75;5017243;28;20183;-70
2021/04/27 10:03:05;;;;;;;3.27;3.00;;;;;;;14.22;24.69;101231.78;5020566;28;20853;-70
2021/04/27 10:05:31;;;;;;;3.60;3.33;;;;;;;17.44;21.16;101218.22;5038851;28;20544;-73
2021/04/27 10:07:58;;;;;;;3.47;3.17;;;;;;;18.37;19.65;101209.09;5015090;28;20777;-69
2021/04/27 10:10:25;;;;;;;3.43;3.13;;;;;;;16.84;21.03;101209.13;5017276;28;20445;-69
2021/04/27 10:12:50;;;;;;;3.57;3.00;;;;;;;17.92;20.15;101216.78;5018574;28;20917;-70
2021/04/27 10:15:16;;;;;;;4.47;3.83;;;;;;;16.91;20.36;101209.06;5018737;28;20441;-69
2021/04/27 10:17:41;;;;;;;4.27;3.27;;;;;;;14.18;23.83;101224.78;5017631;28;20181;-68
2021/04/27 10:20:12;;;;;;;3.70;3.17;;;;;;;17.21;21.01;101197.38;5018049;28;20190;-69
2021/04/27 10:22:39;;;;;;;3.67;3.30;;;;;;;18.75;19.07;101188.25;5018049;28;20194;-68
2021/04/27 10:25:05;;;;;;;3.07;2.77;;;;;;;15.70;22.54;101207.16;5018332;28;20531;-68
2021/04/27 10:27:32;;;;;;;5.37;3.50;;;;;;;17.14;20.18;101195.69;5018872;28;20567;-70
2021/04/27 10:30:17;;;;;;;5.73;3.10;;;;;;;18.84;18.19;101188.94;5013797;28;20463;-71
2021/04/27 10:33:06;;;;;;;3.43;3.13;;;;;;;18.73;19.00;101161.88;5018525;28;20421;-70
2021/04/27 10:35:33;;;;;;;3.00;2.80;;;;;;;16.71;20.20;101180.25;5018418;28;20422;-71
2021/04/27 10:38:08;;;;;;;3.23;2.60;;;;;;;17.01;21.11;101194.94;5015731;28;20492;-70
2021/04/27 10:40:57;;;;;;;3.40;3.10;;;;;;;17.59;20.52;101174.97;4998809;28;20866;-72
2021/04/27 10:43:23;;;;;;;3.57;3.27;;;;;;;17.24;19.60;101178.00;4999499;28;20501;-71
2021/04/27 10:45:49;;;;;;;3.00;2.57;;;;;;;17.14;20.23;101187.78;5017501;28;20537;-68
2021/04/27 10:48:33;;;;;;;3.20;2.90;;;;;;;16.33;20.20;101184.94;5007165;28;20509;-70
2021/04/27 10:51:21;;;;;;;3.67;3.07;;;;;;;17.98;18.64;101170.09;5017231;28;20507;-72
2021/04/27 10:54:05;;;;;;;3.03;2.70;;;;;;;16.22;20.60;101158.69;4997764;28;20724;-70
2021/04/27 10:56:39;;;;;;;2.80;2.60;;;;;;;16.62;20.09;101154.91;5017991;28;20429;-71
2021/04/27 10:59:07;;;;;;;3.10;2.80;;;;;;;18.11;19.19;101160.22;5016869;28;20448;-71
2021/04/27 11:01:33;;;;;;;3.43;3.13;;;;;;;17.25;19.71;101161.31;5024219;28;20478;-71
2021/04/27 11:03:59;;;;;;;3.63;3.33;;;;;;;14.69;20.98;101163.63;5037377;28;20729;-69
2021/04/27 11:06:25;;;;;;;3.73;3.00;;;;;;;17.63;18.52;101146.78;5022651;28;20188;-69
2021/04/27 11:09:11;;;;;;;3.53;2.67;;;;;;;15.81;19.71;101144.91;5012702;28;20461;-69
2021/04/27 11:11:37;;;;;;;2.80;2.53;;;;;;;16.92;19.29;101142.34;5015469;28;20182;-69
2021/04/27 11:14:11;;;;;;;2.80;2.30;;;;;;;17.56;21.74;101135.44;4997874;28;20695;-60
2021/04/27 11:16:37;;;;;;;3.50;2.53;;;;;;;19.39;19.47;101128.06;5010129;28;20407;-60
2021/04/27 11:19:20;;;;;;;4.20;3.80;;;;;;;20.46;17.81;101117.69;5017853;28;20433;-61
2021/04/27 11:21:54;;;;;;;4.33;3.93;;;;;;;18.33;17.87;101122.94;5018004;28;20167;-62
2021/04/27 11:24:34;;;;;;;3.30;3.00;;;;;;;15.11;20.33;101125.06;5017046;28;20460;-71
2021/04/27 11:27:01;;;;;;;4.23;3.27;;;;;;;14.01;21.70;101138.19;5017017;28;20441;-71
2021/04/27 11:29:29;;;;;;;4.07;3.70;;;;;;;14.94;20.30;101125.13;5009528;28;20461;-74